Home > Products > Valid Products > TAF

000
FTUS43 KGLD 310520
TAFMCK
TAF
KMCK 310520Z 3106/0106 04005KT P6SM SKC
     FM310900 VRB04KT 3SM BR BKN005
     FM311500 11006KT P6SM BKN008
     FM312000 14010G16KT P6SM SCT150
     FM010200 12006KT P6SM SKC=



000
FTUS43 KGLD 310520
TAFGLD
TAF
KGLD 310520Z 3106/0106 VRB04KT P6SM SKC
     FM311000 VRB05KT 2SM BR BKN005
     FM311500 13005KT P6SM SCT010
     FM311900 16015G25KT P6SM SCT150
     FM010000 19010G16KT P6SM SCT150=



000
FTUS43 KGLD 310318 AAC
TAFGLD
TAF AMD
KGLD 310318Z 3103/3124 03004KT 6SM HZ SKC
     FM311000 VRB05KT 2SM BR BKN005
     FM311500 13005KT P6SM SCT010
     FM311900 16015G25KT P6SM SCT150=



000
FTUS43 KGLD 310157 AAB
TAFGLD
TAF AMD
KGLD 310157Z 3102/3124 01008KT 6SM HZ SKC
      TEMPO 3102/3104 2SM HZ
     FM310400 04005KT P6SM SKC
     FM311000 VRB05KT 2SM BR BKN005
     FM311500 13005KT P6SM SCT010
     FM311900 16015G25KT P6SM SCT150=



000
FTUS43 KGLD 310156 AAA
TAFMCK
TAF AMD
KMCK 310156Z 3102/3124 01012KT P6SM SKC
     FM310600 02005KT 3SM BR BKN005
     FM311600 11006KT P6SM BKN008
     FM312000 14010KT P6SM SCT150=



000
FTUS43 KGLD 310109 AAA
TAFGLD
TAF AMD
KGLD 310109Z 3101/3124 01010G16KT P6SM SKC
      TEMPO 3101/3104 2SM HZ
     FM310400 04005KT P6SM SKC
     FM311000 VRB05KT 2SM BR BKN005
     FM311500 13005KT P6SM SCT010
     FM311900 16015G25KT P6SM SCT150=



000
FTUS43 KGLD 302320
TAFMCK
TAF
KMCK 302320Z 3100/3124 01012G22KT P6SM SKC
     FM310600 02005KT 3SM BR BKN005
     FM311600 11006KT P6SM BKN008
     FM312000 14010KT P6SM SCT150=



000
FTUS43 KGLD 302320
TAFGLD
TAF
KGLD 302320Z 3100/3124 01010G16KT P6SM SKC
     FM310400 04005KT P6SM SKC
     FM311000 VRB05KT 2SM BR BKN005
     FM311500 13005KT P6SM SCT010
     FM311900 16015G25KT P6SM SCT150=



000
FTUS43 KGLD 301721
TAFGLD
TAF
KGLD 301721Z 3018/3118 34013G19KT P6SM SKC
     FM302300 01006KT P6SM FEW250
     FM310400 07005KT P6SM SKC
     FM311000 VRB05KT 2SM BR BKN005
     FM311600 13005KT P6SM SCT010=



000
FTUS43 KGLD 301721
TAFMCK
TAF
KMCK 301721Z 3018/3118 33019G23KT P6SM SKC
     FM310000 01007KT P6SM FEW200
     FM310900 02005KT 5SM BR BKN005
     FM311600 11006KT P6SM BKN008=



000
FTUS43 KGLD 301129
TAFGLD
TAF
KGLD 301129Z 3012/3112 30010KT P6SM SKC
     FM301700 34013G20KT P6SM FEW250
     FM302300 03005KT P6SM FEW250
     FM311000 VRB05KT 2SM BR BKN005=



000
FTUS43 KGLD 301129
TAFMCK
TAF
KMCK 301129Z 3012/3112 30010KT P6SM SKC
     FM301700 32015G25KT P6SM FEW250
     FM310000 02007KT P6SM SCT015
     FM310800 02005KT P6SM BKN007
     FM311000 VRB05KT 3SM BR BKN005=



000
FTUS43 KGLD 300520
TAFGLD
TAF
KGLD 300520Z 3006/3106 30010KT P6SM FEW300
     FM301300 34015G25KT P6SM SKC
     FM302300 01011KT P6SM SKC
     FM310400 05007KT P6SM SKC=



000
FTUS43 KGLD 300520
TAFMCK
TAF
KMCK 300520Z 3006/3106 30010KT P6SM FEW300
     FM301500 32015G25KT P6SM SKC
     FM302300 36012KT P6SM SKC
     FM310300 03007KT P6SM SKC=



000
FTUS43 KGLD 292320
TAFGLD
TAF
KGLD 292320Z 3000/3024 VRB05KT P6SM SKC
     FM300200 30010KT P6SM FEW300
     FM301300 34015G25KT P6SM SKC
     FM302300 01011KT P6SM SKC=



000
FTUS43 KGLD 292320
TAFMCK
TAF
KMCK 292320Z 3000/3024 19009KT P6SM SKC
     FM300200 30010KT P6SM FEW300
     FM301500 32015G25KT P6SM SKC
     FM302300 36012KT P6SM SKC=



000
FTUS43 KGLD 291720
TAFMCK
TAF
KMCK 291720Z 2918/3018 19009KT P6SM SKC
     FM300200 24008KT P6SM SKC
     FM300500 30010KT P6SM FEW300
     FM301500 32015G25KT P6SM SKC=



000
FTUS43 KGLD 291720
TAFGLD
TAF
KGLD 291720Z 2918/3018 24008KT P6SM SKC
     FM292000 21009KT P6SM SKC
     FM300400 27010KT P6SM FEW300
     FM301500 33015G25KT P6SM SKC=



000
FTUS43 KGLD 291122
TAFMCK
TAF
KMCK 291122Z 2912/3012 VRB03KT P6SM SKC
     FM291700 23008KT P6SM SKC
     FM300500 31010KT P6SM SKC=



000
FTUS43 KGLD 291122
TAFGLD
TAF
KGLD 291122Z 2912/3012 VRB04KT P6SM SKC
     FM291400 21011KT P6SM SKC
     FM300500 32010KT P6SM SKC=



000
FTUS43 KGLD 290520
TAFMCK
TAF
KMCK 290520Z 2906/3006 VRB03KT P6SM SKC
     FM291600 20007KT P6SM FEW060
     FM300000 26010KT P6SM SKC=



000
FTUS43 KGLD 290520
TAFGLD
TAF
KGLD 290520Z 2906/3006 VRB05KT P6SM SKC
     FM291600 21011KT P6SM FEW060
     FM300000 25008KT P6SM SKC=



000
FTUS43 KGLD 282320
TAFMCK
TAF
KMCK 282320Z 2900/2924 31010KT P6SM SKC
     FM290200 VRB03KT P6SM SKC
     FM291600 20007KT P6SM FEW060=



000
FTUS43 KGLD 282320
TAFGLD
TAF
KGLD 282320Z 2900/2924 VRB05KT P6SM SKC
     FM290800 24004KT P6SM SKC
     FM291600 21011KT P6SM FEW060=



000
FTUS43 KGLD 281725
TAFGLD
TAF
KGLD 281725Z 2818/2918 33012KT P6SM FEW200
     FM282300 VRB05KT P6SM SKC
     FM290800 24006KT P6SM SKC=



000
FTUS43 KGLD 281725
TAFMCK
TAF
KMCK 281725Z 2818/2918 32009KT P6SM SKC
     FM290000 VRB03KT P6SM SKC=



000
FTUS43 KGLD 281159 CCA
TAFMCK
TAF COR
KMCK 281159Z 2812/2912 26008KT P6SM FEW200
     FM281400 29010KT P6SM FEW200
     FM281500 32010KT P6SM SKC
     FM290400 28004KT P6SM SKC=



000
FTUS43 KGLD 281120
TAFMCK
TAF
KMCK 281120Z 2812/2912 25008KT P6SM FEW200
     FM281400 28010KT P6SM FEW200
     FM281500 32010KT P6SM SKC
     FM290400 28004KT P6SM SKC=



000
FTUS43 KGLD 281120
TAFGLD
TAF
KGLD 281120Z 2812/2912 26009KT P6SM FEW200
     FM281700 31012KT P6SM FEW200
     FM282300 18005KT P6SM SKC
     FM290800 21006KT P6SM SKC=



    US Dept of Commerce
    National Oceanic and Atmospheric Administration
    National Weather Service
    1325 East West Highway
    Silver Spring, MD 20910
    Page Author: NWS Internet Services Team
Disclaimer
Information Quality
Credits
Glossary
Privacy Policy
Freedom of Information Act (FOIA)
About Us
Career Opportunities